sensor_id;sensor_type;location;lat;lon;timestamp;pressure;altitude;pressure_sealevel;temperature;humidity
78182;BME280;67441;50.116;8.696;2023-02-22T00:00:25;100321.41;;;6.86;83.23
78182;BME280;67441;50.116;8.696;2023-02-22T00:01:04;100337.06;;;6.85;83.26
78182;BME280;67441;50.116;8.696;2023-02-22T00:01:43;100337.13;;;6.86;83.42
78182;BME280;67441;50.116;8.696;2023-02-22T00:02:14;99855.44;;;4.14;83.53
78182;BME280;67441;50.116;8.696;2023-02-22T00:02:55;100336.25;;;6.87;83.43
78182;BME280;67441;50.116;8.696;2023-02-22T00:03:26;99902.34;;;4.44;83.00
78182;BME280;67441;50.116;8.696;2023-02-22T00:03:52;99738.88;;;3.44;83.27
78182;BME280;67441;50.116;8.696;2023-02-22T00:04:17;100326.50;;;6.82;83.47
78182;BME280;67441;50.116;8.696;2023-02-22T00:04:45;100244.88;;;6.26;83.48
78182;BME280;67441;50.116;8.696;2023-02-22T00:05:10;100325.53;;;6.77;83.60
78182;BME280;67441;50.116;8.696;2023-02-22T00:05:36;100318.59;;;6.79;83.85
78182;BME280;67441;50.116;8.696;2023-02-22T00:06:04;100321.41;;;6.86;83.38
78182;BME280;67441;50.116;8.696;2023-02-22T00:06:30;100246.97;;;6.39;83.41
78182;BME280;67441;50.116;8.696;2023-02-22T00:06:56;100252.09;;;6.36;83.46
78182;BME280;67441;50.116;8.696;2023-02-22T00:07:25;100223.88;;;6.23;83.56
78182;BME280;67441;50.116;8.696;2023-02-22T00:07:50;100329.97;;;6.79;83.68
78182;BME280;67441;50.116;8.696;2023-02-22T00:08:16;100315.00;;;6.75;83.35
78182;BME280;67441;50.116;8.696;2023-02-22T00:08:41;100324.66;;;6.76;84.09
78182;BME280;67441;50.116;8.696;2023-02-22T00:09:07;100230.91;;;6.25;84.04
78182;BME280;67441;50.116;8.696;2023-02-22T00:09:33;100321.16;;;6.76;83.58
78182;BME280;67441;50.116;8.696;2023-02-22T00:09:58;100206.84;;;6.05;83.80
78182;BME280;67441;50.116;8.696;2023-02-22T00:10:25;100322.91;;;6.77;83.89
78182;BME280;67441;50.116;8.696;2023-02-22T00:10:51;100288.81;;;6.40;83.89
78182;BME280;67441;50.116;8.696;2023-02-22T00:11:16;100323.78;;;6.76;83.87
78182;BME280;67441;50.116;8.696;2023-02-22T00:11:46;100322.94;;;6.78;83.56
78182;BME280;67441;50.116;8.696;2023-02-22T00:12:12;100339.56;;;6.80;83.72
78182;BME280;67441;50.116;8.696;2023-02-22T00:12:40;100322.06;;;6.78;83.57
78182;BME280;67441;50.116;8.696;2023-02-22T00:13:07;100311.47;;;6.73;83.87
78182;BME280;67441;50.116;8.696;2023-02-22T00:13:34;100320.31;;;6.78;83.52
78182;BME280;67441;50.116;8.696;2023-02-22T00:14:00;100342.09;;;6.77;83.71
78182;BME280;67441;50.116;8.696;2023-02-22T00:14:26;100325.81;;;6.87;83.14
78182;BME280;67441;50.116;8.696;2023-02-22T00:14:52;99677.25;;;3.13;82.85
78182;BME280;67441;50.116;8.696;2023-02-22T00:15:19;100317.88;;;6.84;83.06
78182;BME280;67441;50.116;8.696;2023-02-22T00:15:44;100076.63;;;5.22;83.00
78182;BME280;67441;50.116;8.696;2023-02-22T00:16:13;100316.91;;;6.81;83.14
78182;BME280;67441;50.116;8.696;2023-02-22T00:16:40;100265.72;;;6.57;83.10
78182;BME280;67441;50.116;8.696;2023-02-22T00:17:05;100318.81;;;6.86;83.52
78182;BME280;67441;50.116;8.696;2023-02-22T00:17:31;100110.97;;;5.69;83.30
78182;BME280;67441;50.116;8.696;2023-02-22T00:17:57;100206.25;;;6.14;83.05
78182;BME280;67441;50.116;8.696;2023-02-22T00:18:22;100310.88;;;6.83;82.88
78182;BME280;67441;50.116;8.696;2023-02-22T00:18:49;100168.41;;;6.00;82.86
78182;BME280;67441;50.116;8.696;2023-02-22T00:19:15;100187.09;;;6.15;82.87
78182;BME280;67441;50.116;8.696;2023-02-22T00:19:40;100310.78;;;6.80;83.16
78182;BME280;67441;50.116;8.696;2023-02-22T00:20:08;100303.81;;;6.81;83.15
78182;BME280;67441;50.116;8.696;2023-02-22T00:20:39;99571.34;;;2.48;83.02
78182;BME280;67441;50.116;8.696;2023-02-22T00:21:05;100013.84;;;5.16;82.62
78182;BME280;67441;50.116;8.696;2023-02-22T00:21:34;99860.97;;;4.25;82.73
78182;BME280;67441;50.116;8.696;2023-02-22T00:22:01;99863.25;;;4.14;83.01
78182;BME280;67441;50.116;8.696;2023-02-22T00:22:27;100304.88;;;6.87;82.96
78182;BME280;67441;50.116;8.696;2023-02-22T00:22:52;99893.25;;;4.30;82.83
78182;BME280;67441;50.116;8.696;2023-02-22T00:23:19;100305.59;;;6.82;82.78
78182;BME280;67441;50.116;8.696;2023-02-22T00:23:47;100300.41;;;6.83;82.79
78182;BME280;67441;50.116;8.696;2023-02-22T00:24:12;100190.63;;;6.17;82.95
78182;BME280;67441;50.116;8.696;2023-02-22T00:24:47;100298.56;;;6.79;82.98
78182;BME280;67441;50.116;8.696;2023-02-22T00:25:13;100302.94;;;6.80;83.29
78182;BME280;67441;50.116;8.696;2023-02-22T00:25:39;100074.56;;;5.42;83.12
78182;BME280;67441;50.116;8.696;2023-02-22T00:26:05;100296.75;;;6.77;82.96
78182;BME280;67441;50.116;8.696;2023-02-22T00:26:34;100201.91;;;6.16;83.20
78182;BME280;67441;50.116;8.696;2023-02-22T00:26:59;100302.88;;;6.79;83.13
78182;BME280;67441;50.116;8.696;2023-02-22T00:27:24;100302.84;;;6.76;83.20
78182;BME280;67441;50.116;8.696;2023-02-22T00:27:50;100310.63;;;6.74;83.49
78182;BME280;67441;50.116;8.696;2023-02-22T00:28:17;100253.13;;;6.41;83.41
78182;BME280;67441;50.116;8.696;2023-02-22T00:28:47;100244.16;;;6.31;83.48
78182;BME280;67441;50.116;8.696;2023-02-22T00:29:13;100307.94;;;6.71;83.71
78182;BME280;67441;50.116;8.696;2023-02-22T00:29:43;100313.16;;;6.71;83.88
78182;BME280;67441;50.116;8.696;2023-02-22T00:30:17;100060.38;;;5.33;83.78
78182;BME280;67441;50.116;8.696;2023-02-22T00:30:44;100071.56;;;5.27;83.63
78182;BME280;67441;50.116;8.696;2023-02-22T00:31:09;100307.91;;;6.70;83.62
78182;BME280;67441;50.116;8.696;2023-02-22T00:31:37;100309.66;;;6.71;83.42
78182;BME280;67441;50.116;8.696;2023-02-22T00:32:03;100182.28;;;5.99;83.53
78182;BME280;67441;50.116;8.696;2023-02-22T00:32:28;100312.19;;;6.67;83.38
78182;BME280;67441;50.116;8.696;2023-02-22T00:32:55;100089.53;;;5.49;83.58
78182;BME280;67441;50.116;8.696;2023-02-22T00:33:21;100178.69;;;5.93;83.80
78182;BME280;67441;50.116;8.696;2023-02-22T00:33:47;100305.47;;;6.76;83.71
78182;BME280;67441;50.116;8.696;2023-02-22T00:34:12;100308.81;;;6.72;83.56
78182;BME280;67441;50.116;8.696;2023-02-22T00:34:38;100213.31;;;6.18;83.75
78182;BME280;67441;50.116;8.696;2023-02-22T00:35:04;100309.72;;;6.72;83.63
78182;BME280;67441;50.116;8.696;2023-02-22T00:35:32;100310.00;;;6.83;83.38
78182;BME280;67441;50.116;8.696;2023-02-22T00:35:58;100313.41;;;6.80;83.40
78182;BME280;67441;50.116;8.696;2023-02-22T00:36:24;100312.53;;;6.80;83.27
78182;BME280;67441;50.116;8.696;2023-02-22T00:36:49;100307.22;;;6.77;83.83
78182;BME280;67441;50.116;8.696;2023-02-22T00:37:17;99855.53;;;4.17;83.41
78182;BME280;67441;50.116;8.696;2023-02-22T00:37:47;100325.63;;;6.81;83.99
78182;BME280;67441;50.116;8.696;2023-02-22T00:38:15;100307.50;;;6.89;83.76
78182;BME280;67441;50.116;8.696;2023-02-22T00:38:41;100309.13;;;6.82;83.74
78182;BME280;67441;50.116;8.696;2023-02-22T00:39:09;99953.59;;;4.75;83.61
78182;BME280;67441;50.116;8.696;2023-02-22T00:39:35;100310.72;;;6.77;83.82
78182;BME280;67441;50.116;8.696;2023-02-22T00:40:01;100303.81;;;6.79;83.55
78182;BME280;67441;50.116;8.696;2023-02-22T00:40:29;100308.00;;;6.73;83.76
78182;BME280;67441;50.116;8.696;2023-02-22T00:40:55;100309.84;;;6.77;84.03
78182;BME280;67441;50.116;8.696;2023-02-22T00:41:20;100308.06;;;6.76;84.13
78182;BME280;67441;50.116;8.696;2023-02-22T00:41:46;100302.78;;;6.74;84.15
78182;BME280;67441;50.116;8.696;2023-02-22T00:42:11;100305.47;;;6.77;83.59
78182;BME280;67441;50.116;8.696;2023-02-22T00:42:37;100306.25;;;6.73;83.90
78182;BME280;67441;50.116;8.696;2023-02-22T00:43:03;100309.63;;;6.69;84.03
78182;BME280;67441;50.116;8.696;2023-02-22T00:43:29;100133.03;;;5.47;83.79
78182;BME280;67441;50.116;8.696;2023-02-22T00:43:54;100305.22;;;6.68;83.71
78182;BME280;67441;50.116;8.696;2023-02-22T00:44:20;100335.81;;;6.69;83.90
78182;BME280;67441;50.116;8.696;2023-02-22T00:44:46;100306.97;;;6.67;84.15
78182;BME280;67441;50.116;8.696;2023-02-22T00:45:14;100218.56;;;6.19;83.85
78182;BME280;67441;50.116;8.696;2023-02-22T00:45:40;100304.59;;;6.77;83.87
78182;BME280;67441;50.116;8.696;2023-02-22T00:46:06;100313.31;;;6.76;83.88
78182;BME280;67441;50.116;8.696;2023-02-22T00:46:31;100300.97;;;6.72;84.14
78182;BME280;67441;50.116;8.696;2023-02-22T00:46:56;100225.78;;;6.28;84.01
78182;BME280;67441;50.116;8.696;2023-02-22T00:47:22;100296.50;;;6.67;84.18
78182;BME280;67441;50.116;8.696;2023-02-22T00:47:48;100301.81;;;6.71;84.05
78182;BME280;67441;50.116;8.696;2023-02-22T00:48:13;100301.78;;;6.69;84.23
78182;BME280;67441;50.116;8.696;2023-02-22T00:48:38;100232.66;;;6.25;84.25
78182;BME280;67441;50.116;8.696;2023-02-22T00:49:04;100296.47;;;6.66;83.79
78182;BME280;67441;50.116;8.696;2023-02-22T00:49:30;100186.69;;;6.00;83.74
78182;BME280;67441;50.116;8.696;2023-02-22T00:49:55;100299.25;;;6.72;84.03
78182;BME280;67441;50.116;8.696;2023-02-22T00:50:22;100296.66;;;6.72;84.01
78182;BME280;67441;50.116;8.696;2023-02-22T00:50:48;100059.59;;;5.37;83.70
78182;BME280;67441;50.116;8.696;2023-02-22T00:51:14;100220.72;;;6.34;83.41
78182;BME280;67441;50.116;8.696;2023-02-22T00:51:39;100296.69;;;6.75;83.83
78182;BME280;67441;50.116;8.696;2023-02-22T00:52:05;100000.72;;;4.82;83.73
78182;BME280;67441;50.116;8.696;2023-02-22T00:52:31;100298.31;;;6.69;83.83
78182;BME280;67441;50.116;8.696;2023-02-22T00:52:58;100295.72;;;6.70;83.82
78182;BME280;67441;50.116;8.696;2023-02-22T00:53:24;100295.00;;;6.77;83.71
78182;BME280;67441;50.116;8.696;2023-02-22T00:53:51;100300.28;;;6.79;83.89
78182;BME280;67441;50.116;8.696;2023-02-22T00:54:17;100075.44;;;5.43;83.90
78182;BME280;67441;50.116;8.696;2023-02-22T00:54:44;99749.72;;;3.59;83.89
78182;BME280;67441;50.116;8.696;2023-02-22T00:55:10;100288.75;;;6.71;83.73
78182;BME280;67441;50.116;8.696;2023-02-22T00:55:38;100204.53;;;6.16;83.78
78182;BME280;67441;50.116;8.696;2023-02-22T00:56:04;100292.13;;;6.66;83.90
78182;BME280;67441;50.116;8.696;2023-02-22T00:56:32;100292.22;;;6.70;83.88
78182;BME280;67441;50.116;8.696;2023-02-22T00:57:02;100294.91;;;6.73;84.27
78182;BME280;67441;50.116;8.696;2023-02-22T00:57:27;100152.34;;;5.86;84.02
78182;BME280;67441;50.116;8.696;2023-02-22T00:57:53;100291.34;;;6.69;83.72
78182;BME280;67441;50.116;8.696;2023-02-22T00:58:20;100289.59;;;6.70;84.27
78182;BME280;67441;50.116;8.696;2023-02-22T00:58:45;100299.25;;;6.72;83.81
78182;BME280;67441;50.116;8.696;2023-02-22T00:59:11;100292.22;;;6.70;84.24
78182;BME280;67441;50.116;8.696;2023-02-22T00:59:36;100199.19;;;6.11;84.21
78182;BME280;67441;50.116;8.696;2023-02-22T01:00:03;100296.41;;;6.63;84.32
78182;BME280;67441;50.116;8.696;2023-02-22T01:00:37;100294.63;;;6.62;83.94
78182;BME280;67441;50.116;8.696;2023-02-22T01:01:03;100162.91;;;5.90;83.94
78182;BME280;67441;50.116;8.696;2023-02-22T01:01:29;100285.00;;;6.61;83.94
78182;BME280;67441;50.116;8.696;2023-02-22T01:01:55;99935.66;;;4.56;83.52
78182;BME280;67441;50.116;8.696;2023-02-22T01:02:20;100284.97;;;6.59;83.88
78182;BME280;67441;50.116;8.696;2023-02-22T01:02:46;99960.41;;;4.70;83.54
78182;BME280;67441;50.116;8.696;2023-02-22T01:03:17;100287.53;;;6.58;84.24
78182;BME280;67441;50.116;8.696;2023-02-22T01:03:43;100024.81;;;5.05;83.62
78182;BME280;67441;50.116;8.696;2023-02-22T01:04:09;100095.19;;;5.33;84.04
78182;BME280;67441;50.116;8.696;2023-02-22T01:04:34;100286.63;;;6.56;83.73
78182;BME280;67441;50.116;8.696;2023-02-22T01:04:59;100246.78;;;6.33;84.08
78182;BME280;67441;50.116;8.696;2023-02-22T01:05:26;100289.19;;;6.54;83.86
78182;BME280;67441;50.116;8.696;2023-02-22T01:05:52;99947.47;;;4.43;84.05
78182;BME280;67441;50.116;8.696;2023-02-22T01:06:18;100285.66;;;6.52;84.12
78182;BME280;67441;50.116;8.696;2023-02-22T01:06:43;100282.25;;;6.55;84.08
78182;BME280;67441;50.116;8.696;2023-02-22T01:07:09;100284.00;;;6.56;84.10
78182;BME280;67441;50.116;8.696;2023-02-22T01:07:38;100319.00;;;6.61;84.30
78182;BME280;67441;50.116;8.696;2023-02-22T01:08:07;100280.72;;;6.64;83.75
78182;BME280;67441;50.116;8.696;2023-02-22T01:08:33;100022.22;;;5.05;83.72
78182;BME280;67441;50.116;8.696;2023-02-22T01:08:58;100279.94;;;6.67;83.75
78182;BME280;67441;50.116;8.696;2023-02-22T01:09:24;99642.25;;;2.73;83.36
78182;BME280;67441;50.116;8.696;2023-02-22T01:09:50;100284.19;;;6.62;84.14
78182;BME280;67441;50.116;8.696;2023-02-22T01:10:18;100140.88;;;5.81;83.54
78182;BME280;67441;50.116;8.696;2023-02-22T01:10:44;99886.78;;;4.16;83.75
78182;BME280;67441;50.116;8.696;2023-02-22T01:11:12;100226.38;;;6.18;83.83
78182;BME280;67441;50.116;8.696;2023-02-22T01:11:37;100227.34;;;6.22;84.18
78182;BME280;67441;50.116;8.696;2023-02-22T01:12:02;100278.81;;;6.57;84.07
78182;BME280;67441;50.116;8.696;2023-02-22T01:12:28;100306.75;;;6.58;84.22
78182;BME280;67441;50.116;8.696;2023-02-22T01:12:54;100271.91;;;6.59;84.01
78182;BME280;67441;50.116;8.696;2023-02-22T01:13:20;100277.22;;;6.62;84.07
78182;BME280;67441;50.116;8.696;2023-02-22T01:13:47;100079.91;;;5.47;84.02
78182;BME280;67441;50.116;8.696;2023-02-22T01:14:12;100279.84;;;6.64;84.18
78182;BME280;67441;50.116;8.696;2023-02-22T01:14:38;100279.81;;;6.62;84.17
78182;BME280;67441;50.116;8.696;2023-02-22T01:15:06;100034.84;;;5.21;84.00
78182;BME280;67441;50.116;8.696;2023-02-22T01:15:36;100260.41;;;6.53;84.21
78182;BME280;67441;50.116;8.696;2023-02-22T01:16:02;99982.63;;;4.88;83.93
78182;BME280;67441;50.116;8.696;2023-02-22T01:16:27;100275.47;;;6.63;84.26
78182;BME280;67441;50.116;8.696;2023-02-22T01:16:54;99977.56;;;4.94;83.83
78182;BME280;67441;50.116;8.696;2023-02-22T01:17:20;99821.09;;;3.97;83.43
78182;BME280;67441;50.116;8.696;2023-02-22T01:17:46;100276.44;;;6.66;83.90
78182;BME280;67441;50.116;8.696;2023-02-22T01:18:12;99599.16;;;2.79;83.25
78182;BME280;67441;50.116;8.696;2023-02-22T01:18:41;100150.91;;;5.97;83.84
78182;BME280;67441;50.116;8.696;2023-02-22T01:19:06;100263.25;;;6.62;83.72
78182;BME280;67441;50.116;8.696;2023-02-22T01:19:31;100277.97;;;6.58;83.96
78182;BME280;67441;50.116;8.696;2023-02-22T01:19:57;100275.41;;;6.60;84.12
78182;BME280;67441;50.116;8.696;2023-02-22T01:20:23;100266.66;;;6.59;84.10
78182;BME280;67441;50.116;8.696;2023-02-22T01:20:49;100039.38;;;5.28;84.19
78182;BME280;67441;50.116;8.696;2023-02-22T01:21:14;100265.00;;;6.63;84.47
78182;BME280;67441;50.116;8.696;2023-02-22T01:21:40;100244.78;;;6.56;83.69
78182;BME280;67441;50.116;8.696;2023-02-22T01:22:05;100271.13;;;6.63;83.69
78182;BME280;67441;50.116;8.696;2023-02-22T01:22:31;99765.72;;;3.71;83.51
78182;BME280;67441;50.116;8.696;2023-02-22T01:22:57;100267.44;;;6.55;84.24
78182;BME280;67441;50.116;8.696;2023-02-22T01:23:23;100026.22;;;5.23;83.80
78182;BME280;67441;50.116;8.696;2023-02-22T01:23:48;100264.91;;;6.58;83.96
78182;BME280;67441;50.116;8.696;2023-02-22T01:24:15;100067.22;;;5.28;83.65
78182;BME280;67441;50.116;8.696;2023-02-22T01:24:40;99937.69;;;4.66;83.97
78182;BME280;67441;50.116;8.696;2023-02-22T01:25:06;100270.06;;;6.55;84.37
78182;BME280;67441;50.116;8.696;2023-02-22T01:25:33;100262.13;;;6.52;84.04
78182;BME280;67441;50.116;8.696;2023-02-22T01:25:59;100135.47;;;5.75;83.98
78182;BME280;67441;50.116;8.696;2023-02-22T01:26:24;100260.31;;;6.50;84.34
78182;BME280;67441;50.116;8.696;2023-02-22T01:26:51;100186.91;;;6.09;84.59
78182;BME280;67441;50.116;8.696;2023-02-22T01:27:17;100254.22;;;6.51;84.23
78182;BME280;67441;50.116;8.696;2023-02-22T01:27:42;100263.81;;;6.50;84.34
78182;BME280;67441;50.116;8.696;2023-02-22T01:28:08;100131.81;;;5.68;84.55
78182;BME280;67441;50.116;8.696;2023-02-22T01:28:33;100259.38;;;6.48;84.85
78182;BME280;67441;50.116;8.696;2023-02-22T01:28:58;100259.44;;;6.51;84.55
78182;BME280;67441;50.116;8.696;2023-02-22T01:29:24;100169.13;;;5.94;84.54
78182;BME280;67441;50.116;8.696;2023-02-22T01:29:49;100268.03;;;6.45;84.79
78182;BME280;67441;50.116;8.696;2023-02-22T01:30:19;100257.63;;;6.47;84.69
78182;BME280;67441;50.116;8.696;2023-02-22T01:30:45;100076.78;;;5.29;84.52
78182;BME280;67441;50.116;8.696;2023-02-22T01:31:11;100261.88;;;6.43;84.88
78182;BME280;67441;50.116;8.696;2023-02-22T01:31:36;100264.50;;;6.43;84.65
78182;BME280;67441;50.116;8.696;2023-02-22T01:32:02;100263.63;;;6.42;84.35
78182;BME280;67441;50.116;8.696;2023-02-22T01:32:27;100264.56;;;6.45;84.52
78182;BME280;67441;50.116;8.696;2023-02-22T01:32:54;99963.16;;;4.75;84.64
78182;BME280;67441;50.116;8.696;2023-02-22T01:33:19;100010.25;;;4.81;84.52
78182;BME280;67441;50.116;8.696;2023-02-22T01:33:45;100257.50;;;6.42;84.66
78182;BME280;67441;50.116;8.696;2023-02-22T01:34:11;100257.53;;;6.43;84.72
78182;BME280;67441;50.116;8.696;2023-02-22T01:34:37;100260.91;;;6.39;84.86
78182;BME280;67441;50.116;8.696;2023-02-22T01:35:04;100276.59;;;6.39;84.74
78182;BME280;67441;50.116;8.696;2023-02-22T01:35:35;100267.16;;;6.45;84.58
78182;BME280;67441;50.116;8.696;2023-02-22T01:36:00;100191.19;;;6.05;84.74
78182;BME280;67441;50.116;8.696;2023-02-22T01:36:26;100261.97;;;6.46;84.91
78182;BME280;67441;50.116;8.696;2023-02-22T01:36:52;100265.50;;;6.48;84.73
78182;BME280;67441;50.116;8.696;2023-02-22T01:37:17;100251.41;;;6.43;84.41
78182;BME280;67441;50.116;8.696;2023-02-22T01:37:43;99836.97;;;3.76;84.41
78182;BME280;67441;50.116;8.696;2023-02-22T01:38:09;100255.84;;;6.46;84.86
78182;BME280;67441;50.116;8.696;2023-02-22T01:38:35;99961.13;;;4.65;84.65
78182;BME280;67441;50.116;8.696;2023-02-22T01:39:01;100257.69;;;6.50;84.82
78182;BME280;67441;50.116;8.696;2023-02-22T01:39:26;100102.81;;;5.57;84.65
78182;BME280;67441;50.116;8.696;2023-02-22T01:39:52;100255.84;;;6.46;84.37
78182;BME280;67441;50.116;8.696;2023-02-22T01:40:24;100264.56;;;6.46;84.71
78182;BME280;67441;50.116;8.696;2023-02-22T01:40:51;100133.78;;;5.75;84.30
78182;BME280;67441;50.116;8.696;2023-02-22T01:41:17;100086.25;;;5.25;84.34
78182;BME280;67441;50.116;8.696;2023-02-22T01:41:45;100258.41;;;6.44;84.97
78182;BME280;67441;50.116;8.696;2023-02-22T01:42:10;100263.50;;;6.38;84.59
78182;BME280;67441;50.116;8.696;2023-02-22T01:42:36;100259.09;;;6.37;84.89
78182;BME280;67441;50.116;8.696;2023-02-22T01:43:05;99821.59;;;3.84;84.44
78182;BME280;67441;50.116;8.696;2023-02-22T01:43:38;100145.41;;;5.55;84.73
78182;BME280;67441;50.116;8.696;2023-02-22T01:46:24;100253.00;;;6.36;84.49
78182;BME280;67441;50.116;8.696;2023-02-22T01:46:50;100171.59;;;5.58;84.16
78182;BME280;67441;50.116;8.696;2023-02-22T01:47:16;100257.34;;;6.36;84.37
78182;BME280;67441;50.116;8.696;2023-02-22T01:47:41;100147.41;;;5.65;84.47
78182;BME280;67441;50.116;8.696;2023-02-22T01:48:45;99795.56;;;3.54;84.39
78182;BME280;67441;50.116;8.696;2023-02-22T01:49:14;100255.78;;;6.42;84.83
78182;BME280;67441;50.116;8.696;2023-02-22T01:49:48;100127.59;;;5.71;84.53
78182;BME280;67441;50.116;8.696;2023-02-22T01:50:15;100251.34;;;6.40;84.61
78182;BME280;67441;50.116;8.696;2023-02-22T01:50:44;100261.84;;;6.41;84.48
78182;BME280;67441;50.116;8.696;2023-02-22T01:51:14;100253.94;;;6.38;84.90
78182;BME280;67441;50.116;8.696;2023-02-22T01:51:45;100274.94;;;6.43;84.54
78182;BME280;67441;50.116;8.696;2023-02-22T01:52:16;100180.63;;;6.01;84.37
78182;BME280;67441;50.116;8.696;2023-02-22T01:52:43;100141.16;;;5.60;84.27
78182;BME280;67441;50.116;8.696;2023-02-22T01:53:09;100254.13;;;6.46;84.66
78182;BME280;67441;50.116;8.696;2023-02-22T01:53:46;100137.34;;;5.79;84.31
78182;BME280;67441;50.116;8.696;2023-02-22T01:54:45;100243.50;;;6.40;84.43
78182;BME280;67441;50.116;8.696;2023-02-22T01:55:10;100018.84;;;5.09;84.35
78182;BME280;67441;50.116;8.696;2023-02-22T01:55:35;100246.09;;;6.38;84.54
78182;BME280;67441;50.116;8.696;2023-02-22T01:56:02;100252.16;;;6.37;84.94
78182;BME280;67441;50.116;8.696;2023-02-22T01:56:30;100019.56;;;5.03;84.58
78182;BME280;67441;50.116;8.696;2023-02-22T01:57:14;100248.69;;;6.38;84.78
78182;BME280;67441;50.116;8.696;2023-02-22T01:57:42;100270.47;;;6.37;84.86
78182;BME280;67441;50.116;8.696;2023-02-22T01:58:07;100242.59;;;6.38;84.88
78182;BME280;67441;50.116;8.696;2023-02-22T01:58:34;100030.31;;;5.14;84.70
78182;BME280;67441;50.116;8.696;2023-02-22T01:59:06;100243.50;;;6.40;84.56
78182;BME280;67441;50.116;8.696;2023-02-22T01:59:35;100121.34;;;5.66;84.86
78182;BME280;67441;50.116;8.696;2023-02-22T02:00:07;100217.06;;;6.28;84.55
78182;BME280;67441;50.116;8.696;2023-02-22T02:00:34;100257.63;;;6.47;84.72
78182;BME280;67441;50.116;8.696;2023-02-22T02:01:00;100240.88;;;6.40;84.82
78182;BME280;67441;50.116;8.696;2023-02-22T02:01:25;100244.38;;;6.40;84.85
78182;BME280;67441;50.116;8.696;2023-02-22T02:01:52;100095.16;;;5.32;84.60
78182;BME280;67441;50.116;8.696;2023-02-22T02:02:17;100234.59;;;6.33;84.52
78182;BME280;67441;50.116;8.696;2023-02-22T02:02:53;100015.34;;;5.08;85.00
78182;BME280;67441;50.116;8.696;2023-02-22T02:03:26;99922.56;;;4.53;84.71
78182;BME280;67441;50.116;8.696;2023-02-22T02:03:58;100110.88;;;5.65;84.67
78182;BME280;67441;50.116;8.696;2023-02-22T02:04:26;99656.16;;;3.02;84.56
78182;BME280;67441;50.116;8.696;2023-02-22T02:04:53;100137.38;;;5.80;84.88
78182;BME280;67441;50.116;8.696;2023-02-22T02:05:21;99772.47;;;3.66;84.23
78182;BME280;67441;50.116;8.696;2023-02-22T02:05:50;100157.91;;;5.98;85.02
78182;BME280;67441;50.116;8.696;2023-02-22T02:06:18;100121.25;;;5.63;84.78
78182;BME280;67441;50.116;8.696;2023-02-22T02:06:44;100235.47;;;6.34;84.60
78182;BME280;67441;50.116;8.696;2023-02-22T02:07:12;100231.09;;;6.31;85.12
78182;BME280;67441;50.116;8.696;2023-02-22T02:07:39;100233.03;;;6.40;85.10
78182;BME280;67441;50.116;8.696;2023-02-22T02:08:12;100140.00;;;5.82;84.83
78182;BME280;67441;50.116;8.696;2023-02-22T02:08:54;100231.91;;;6.30;85.04
78182;BME280;67441;50.116;8.696;2023-02-22T02:09:58;100232.00;;;6.33;84.88
78182;BME280;67441;50.116;8.696;2023-02-22T02:10:24;99762.50;;;3.51;84.50
78182;BME280;67441;50.116;8.696;2023-02-22T02:10:50;100234.41;;;6.26;84.69
78182;BME280;67441;50.116;8.696;2023-02-22T02:11:18;100231.78;;;6.26;84.72
78182;BME280;67441;50.116;8.696;2023-02-22T02:11:45;100237.03;;;6.26;84.51
78182;BME280;67441;50.116;8.696;2023-02-22T02:12:13;100227.59;;;6.31;84.86
78182;BME280;67441;50.116;8.696;2023-02-22T02:12:43;100229.25;;;6.27;84.46
78182;BME280;67441;50.116;8.696;2023-02-22T02:13:09;100257.75;;;6.19;84.99
78182;BME280;67441;50.116;8.696;2023-02-22T02:13:34;100233.34;;;6.17;85.16
78182;BME280;67441;50.116;8.696;2023-02-22T02:14:00;100008.56;;;4.83;84.91
78182;BME280;67441;50.116;8.696;2023-02-22T02:14:25;100234.22;;;6.18;85.32
78182;BME280;67441;50.116;8.696;2023-02-22T02:14:51;100235.88;;;6.16;85.49
78182;BME280;67441;50.116;8.696;2023-02-22T02:15:42;100101.06;;;5.26;85.02
78182;BME280;67441;50.116;8.696;2023-02-22T02:16:07;100225.34;;;6.13;85.17
78182;BME280;67441;50.116;8.696;2023-02-22T02:16:52;100229.75;;;6.14;85.54
78182;BME280;67441;50.116;8.696;2023-02-22T02:17:20;100079.13;;;5.19;85.16
78182;BME280;67441;50.116;8.696;2023-02-22T02:17:48;100233.44;;;6.22;84.81
78182;BME280;67441;50.116;8.696;2023-02-22T02:18:15;100143.00;;;5.62;85.30
78182;BME280;67441;50.116;8.696;2023-02-22T02:18:40;100226.56;;;6.26;85.02
78182;BME280;67441;50.116;8.696;2023-02-22T02:19:19;99974.59;;;4.80;85.16
78182;BME280;67441;50.116;8.696;2023-02-22T02:20:02;100226.47;;;6.23;85.18
78182;BME280;67441;50.116;8.696;2023-02-22T02:22:16;100177.91;;;5.96;85.39
78182;BME280;67441;50.116;8.696;2023-02-22T02:23:15;100234.31;;;6.23;85.10
78182;BME280;67441;50.116;8.696;2023-02-22T02:25:02;100226.28;;;6.15;85.42
78182;BME280;67441;50.116;8.696;2023-02-22T02:26:47;100225.31;;;6.11;85.52
78182;BME280;67441;50.116;8.696;2023-02-22T02:27:26;100120.00;;;5.49;85.74
78182;BME280;67441;50.116;8.696;2023-02-22T02:29:45;100217.59;;;6.16;85.58
78182;BME280;67441;50.116;8.696;2023-02-22T02:30:38;100221.84;;;6.12;85.52
78182;BME280;67441;50.116;8.696;2023-02-22T02:32:06;100220.88;;;6.07;85.71
78182;BME280;67441;50.116;8.696;2023-02-22T02:34:00;100144.72;;;5.62;85.11
78182;BME280;67441;50.116;8.696;2023-02-22T02:36:18;100147.94;;;5.53;85.44
78182;BME280;67441;50.116;8.696;2023-02-22T02:36:56;100064.34;;;5.18;85.39
78182;BME280;67441;50.116;8.696;2023-02-22T02:37:36;100089.16;;;5.36;85.16
78182;BME280;67441;50.116;8.696;2023-02-22T02:40:14;100209.38;;;6.01;85.69
78182;BME280;67441;50.116;8.696;2023-02-22T02:40:14;99741.94;;;3.30;85.11
78182;BME280;67441;50.116;8.696;2023-02-22T02:41:20;100225.97;;;6.03;85.70
78182;BME280;67441;50.116;8.696;2023-02-22T02:41:49;100157.47;;;5.51;85.26
78182;BME280;67441;50.116;8.696;2023-02-22T02:42:19;100217.28;;;6.04;85.72
78182;BME280;67441;50.116;8.696;2023-02-22T02:42:55;100098.03;;;5.41;85.48
78182;BME280;67441;50.116;8.696;2023-02-22T02:43:45;100207.81;;;6.09;85.26
78182;BME280;67441;50.116;8.696;2023-02-22T02:44:19;100037.00;;;5.06;84.91